createdAt,value
2023-06-30T00:02:12.633Z,18.00
2023-06-30T00:06:20.457Z,18.05
2023-06-30T00:10:27.844Z,18.08
2023-06-30T00:14:35.810Z,18.10
2023-06-30T00:18:44.940Z,18.10
2023-06-30T00:22:53.816Z,18.14
2023-06-30T00:27:01.880Z,18.20
2023-06-30T00:31:10.289Z,18.22
2023-06-30T00:35:17.983Z,18.23
2023-06-30T00:39:26.481Z,18.23
2023-06-30T00:43:34.730Z,18.22
2023-06-30T00:47:42.627Z,18.22
2023-06-30T00:51:50.193Z,18.24
2023-06-30T00:55:58.197Z,18.25
2023-06-30T01:00:12.057Z,18.25
2023-06-30T01:04:33.204Z,18.25
2023-06-30T01:08:48.677Z,18.24
2023-06-30T01:12:57.048Z,18.25
2023-06-30T01:17:06.335Z,18.28
2023-06-30T01:21:15.872Z,18.25
2023-06-30T01:25:26.964Z,18.21
2023-06-30T01:29:35.226Z,18.17
2023-06-30T01:33:43.712Z,18.13
2023-06-30T01:37:51.906Z,18.11
2023-06-30T01:42:00.041Z,18.14
2023-06-30T01:46:08.007Z,18.17
2023-06-30T01:50:15.640Z,18.17
2023-06-30T01:54:23.107Z,18.16
2023-06-30T01:58:33.325Z,18.15
2023-06-30T02:02:42.218Z,18.15
2023-06-30T02:06:49.576Z,18.18
2023-06-30T02:10:57.219Z,18.21
2023-06-30T02:15:05.383Z,18.21
2023-06-30T02:19:13.243Z,18.20
2023-06-30T02:23:21.326Z,18.18
2023-06-30T02:27:30.197Z,18.17
2023-06-30T02:31:40.114Z,18.20
2023-06-30T02:35:48.395Z,18.21
2023-06-30T02:39:59.737Z,18.20
2023-06-30T02:44:08.085Z,18.19
2023-06-30T02:48:15.898Z,18.20
2023-06-30T02:52:23.847Z,18.22
2023-06-30T02:56:32.071Z,18.21
2023-06-30T03:00:41.324Z,18.17
2023-06-30T03:04:49.402Z,18.14
2023-06-30T03:08:57.091Z,18.15
2023-06-30T03:13:05.827Z,18.18
2023-06-30T03:17:13.855Z,18.18
2023-06-30T03:21:23.739Z,18.17
2023-06-30T03:25:31.664Z,18.16
2023-06-30T03:29:41.331Z,18.14
2023-06-30T03:33:49.213Z,18.16
2023-06-30T03:37:56.693Z,18.19
2023-06-30T03:42:06.157Z,18.22
2023-06-30T03:46:16.798Z,18.23
2023-06-30T03:50:24.415Z,18.21
2023-06-30T03:54:32.258Z,18.20
2023-06-30T03:58:41.312Z,18.18
2023-06-30T04:02:49.084Z,18.18
2023-06-30T04:06:57.337Z,18.19
2023-06-30T04:11:05.108Z,18.23
2023-06-30T04:15:13.850Z,18.24
2023-06-30T04:19:22.480Z,18.21
2023-06-30T04:23:30.127Z,18.17
2023-06-30T04:27:37.826Z,18.16
2023-06-30T04:31:46.080Z,18.19
2023-06-30T04:35:54.267Z,18.25
2023-06-30T04:40:05.787Z,18.26
2023-06-30T04:44:16.876Z,18.24
2023-06-30T04:48:24.271Z,18.25
2023-06-30T04:52:31.960Z,18.26
2023-06-30T04:56:39.508Z,18.29
2023-06-30T05:00:47.253Z,18.31
2023-06-30T05:04:54.849Z,18.34
2023-06-30T05:09:08.941Z,18.37
2023-06-30T05:13:16.404Z,18.44
2023-06-30T05:17:27.530Z,18.56
2023-06-30T05:21:35.199Z,18.71
2023-06-30T05:25:43.997Z,18.83
2023-06-30T05:29:52.542Z,18.92
2023-06-30T05:33:59.724Z,19.02
2023-06-30T05:38:09.489Z,19.14
2023-06-30T05:42:18.756Z,19.25
2023-06-30T05:46:26.389Z,19.36
2023-06-30T05:50:34.264Z,19.45
2023-06-30T05:54:42.105Z,19.54
2023-06-30T05:58:49.442Z,19.60
2023-06-30T06:02:57.495Z,19.71
2023-06-30T06:07:06.928Z,19.83
2023-06-30T06:11:14.864Z,19.98
2023-06-30T06:15:23.881Z,20.13
2023-06-30T06:19:32.091Z,20.25
2023-06-30T06:23:40.987Z,20.40
2023-06-30T06:27:48.607Z,20.57
2023-06-30T06:31:57.378Z,20.75
2023-06-30T06:36:04.974Z,20.90
2023-06-30T06:40:14.215Z,21.05
2023-06-30T06:44:22.075Z,21.26
2023-06-30T06:48:30.228Z,21.48
2023-06-30T06:52:37.883Z,21.67
2023-06-30T06:56:46.982Z,21.87
2023-06-30T07:00:55.019Z,22.11
2023-06-30T07:05:02.497Z,22.30
2023-06-30T07:09:10.536Z,22.43
2023-06-30T07:13:20.303Z,22.53
2023-06-30T07:17:28.211Z,22.64
2023-06-30T07:21:35.593Z,22.77
2023-06-30T07:25:43.392Z,22.86
2023-06-30T07:29:53.836Z,22.95
2023-06-30T07:34:01.587Z,22.99
2023-06-30T07:38:09.399Z,22.95
2023-06-30T07:42:17.094Z,22.89
2023-06-30T07:46:26.541Z,22.90
2023-06-30T07:50:34.333Z,22.96
2023-06-30T07:54:43.914Z,23.05
2023-06-30T07:58:51.397Z,23.15
2023-06-30T08:02:59.733Z,23.20
2023-06-30T08:07:09.630Z,23.28
2023-06-30T08:11:17.111Z,23.33
2023-06-30T08:15:24.984Z,23.37
2023-06-30T08:19:47.590Z,23.47
2023-06-30T08:23:57.664Z,23.59
2023-06-30T08:28:05.794Z,23.70
2023-06-30T08:32:16.390Z,23.82
2023-06-30T08:36:26.445Z,23.90
2023-06-30T08:40:34.328Z,23.90
2023-06-30T08:44:44.985Z,23.78
2023-06-30T08:48:53.619Z,23.69
2023-06-30T08:53:02.365Z,23.60
2023-06-30T08:57:10.955Z,23.52
2023-06-30T09:01:18.612Z,23.49
2023-06-30T09:05:27.731Z,23.48
2023-06-30T09:09:40.727Z,23.50
2023-06-30T09:13:53.932Z,23.55
2023-06-30T09:18:01.605Z,23.64
2023-06-30T09:22:52.980Z,23.77
2023-06-30T09:26:37.633Z,23.91
2023-06-30T09:30:47.718Z,24.00
2023-06-30T09:34:57.986Z,24.10
2023-06-30T09:39:06.474Z,24.20
2023-06-30T09:43:19.812Z,24.28
2023-06-30T09:47:30.885Z,24.33
2023-06-30T09:51:40.461Z,24.33
2023-06-30T09:55:53.533Z,24.27
2023-06-30T10:00:04.685Z,24.29
2023-06-30T10:04:12.336Z,24.31
2023-06-30T10:08:19.823Z,24.37
2023-06-30T10:12:27.752Z,24.45
2023-06-30T10:16:35.774Z,24.61
2023-06-30T10:20:49.182Z,24.80
2023-06-30T10:24:59.154Z,24.98
2023-06-30T10:29:06.851Z,25.07
2023-06-30T10:33:14.509Z,25.03
2023-06-30T10:37:23.043Z,25.06
2023-06-30T10:41:31.523Z,25.12
2023-06-30T10:45:56.958Z,25.18
2023-06-30T10:50:16.191Z,25.17
2023-06-30T10:54:28.026Z,25.18
2023-06-30T10:58:45.351Z,25.14
2023-06-30T11:02:58.673Z,25.16
2023-06-30T11:07:11.686Z,25.17
2023-06-30T11:11:21.861Z,25.15
2023-06-30T11:15:38.183Z,25.12
2023-06-30T11:19:59.725Z,25.15
2023-06-30T11:24:17.958Z,25.20
2023-06-30T11:28:29.848Z,25.26
2023-06-30T11:32:38.743Z,25.31
2023-06-30T11:36:47.152Z,25.24
2023-06-30T11:40:57.947Z,25.22
2023-06-30T11:45:06.645Z,25.22
2023-06-30T11:49:14.424Z,25.19
2023-06-30T11:53:22.236Z,25.08
2023-06-30T11:57:30.394Z,25.03
2023-06-30T12:01:37.905Z,24.96
2023-06-30T12:06:00.669Z,24.86
2023-06-30T12:10:12.222Z,24.81
2023-06-30T12:14:22.805Z,24.80
2023-06-30T12:18:39.202Z,24.79
2023-06-30T12:22:47.028Z,24.76
2023-06-30T12:26:55.647Z,24.78
2023-06-30T12:31:03.336Z,24.81
2023-06-30T12:35:12.904Z,24.84
2023-06-30T12:39:24.472Z,24.87
2023-06-30T12:43:31.794Z,24.90
2023-06-30T12:47:39.920Z,24.91
2023-06-30T12:51:47.410Z,24.93
2023-06-30T12:55:57.464Z,24.97
2023-06-30T13:00:08.978Z,24.94
2023-06-30T13:04:19.101Z,24.85
2023-06-30T13:08:26.828Z,24.80
2023-06-30T13:12:37.294Z,24.77
2023-06-30T13:16:45.679Z,24.73
2023-06-30T13:20:53.305Z,24.67
2023-06-30T13:25:01.051Z,24.58
2023-06-30T13:29:08.593Z,24.47
2023-06-30T13:33:16.059Z,24.37
2023-06-30T13:37:24.102Z,24.31
2023-06-30T13:41:32.588Z,24.29
2023-06-30T13:45:40.858Z,24.27
2023-06-30T13:49:48.414Z,24.22
2023-06-30T13:53:56.004Z,24.16
2023-06-30T13:58:05.291Z,24.11
2023-06-30T14:02:13.458Z,24.05
2023-06-30T14:06:21.836Z,24.08
2023-06-30T14:10:30.123Z,24.09
2023-06-30T14:14:38.206Z,24.05
2023-06-30T14:18:45.910Z,23.91
2023-06-30T14:22:53.589Z,23.81
2023-06-30T14:27:04.459Z,23.74
2023-06-30T14:31:12.617Z,23.67
2023-06-30T14:35:20.377Z,23.58
2023-06-30T14:39:29.860Z,23.51
2023-06-30T14:43:40.861Z,23.57
2023-06-30T14:47:48.617Z,23.66
2023-06-30T14:51:56.149Z,23.76
2023-06-30T14:56:03.947Z,23.82
2023-06-30T15:00:14.573Z,23.81
2023-06-30T15:04:22.058Z,23.76
2023-06-30T15:08:29.750Z,23.68
2023-06-30T15:12:39.282Z,23.64
2023-06-30T15:16:53.152Z,23.60
2023-06-30T15:21:01.165Z,23.61
2023-06-30T15:25:10.164Z,23.63
2023-06-30T15:29:18.110Z,23.65
2023-06-30T15:33:27.061Z,23.65
2023-06-30T15:37:34.719Z,23.64
2023-06-30T15:41:45.454Z,23.63
2023-06-30T15:45:56.403Z,23.60
2023-06-30T15:50:04.323Z,23.59
2023-06-30T15:54:13.840Z,23.55
2023-06-30T15:58:21.480Z,23.53
2023-06-30T16:02:29.194Z,23.52
2023-06-30T16:06:37.012Z,23.49
2023-06-30T16:10:44.681Z,23.46
2023-06-30T16:14:52.588Z,23.37
2023-06-30T16:19:00.165Z,23.32
2023-06-30T16:23:07.812Z,23.28
2023-06-30T16:27:15.275Z,23.25
2023-06-30T16:31:22.863Z,23.22
2023-06-30T16:35:31.182Z,23.22
2023-06-30T16:39:38.996Z,23.24
2023-06-30T16:43:46.407Z,23.24
2023-06-30T16:47:54.331Z,23.22
2023-06-30T16:52:01.961Z,23.19
2023-06-30T16:56:09.925Z,23.13
2023-06-30T17:00:19.270Z,23.07
2023-06-30T17:04:26.769Z,23.03
2023-06-30T17:08:34.726Z,22.99
2023-06-30T17:12:42.576Z,22.91
2023-06-30T17:16:50.175Z,22.82
2023-06-30T17:20:59.246Z,22.76
2023-06-30T17:25:07.785Z,22.73
2023-06-30T17:29:16.294Z,22.71
2023-06-30T17:33:24.074Z,22.67
2023-06-30T17:37:32.203Z,22.59
2023-06-30T17:41:39.617Z,22.49
2023-06-30T17:45:46.974Z,22.42
2023-06-30T17:49:54.822Z,22.31
2023-06-30T17:54:02.244Z,22.11
2023-06-30T17:58:10.048Z,21.91
2023-06-30T18:02:18.370Z,21.67
2023-06-30T18:06:27.526Z,21.53
2023-06-30T18:10:35.595Z,21.47
2023-06-30T18:14:44.773Z,21.45
2023-06-30T18:18:52.467Z,21.42
2023-06-30T18:23:00.269Z,21.39
2023-06-30T18:27:08.904Z,21.33
2023-06-30T18:31:16.440Z,21.26
2023-06-30T18:35:24.020Z,21.20
2023-06-30T18:39:31.644Z,21.11
2023-06-30T18:43:40.496Z,20.96
2023-06-30T18:47:51.287Z,20.85
2023-06-30T18:51:59.712Z,20.76
2023-06-30T18:56:08.091Z,20.73
2023-06-30T19:00:17.702Z,20.73
2023-06-30T19:04:25.558Z,20.66
2023-06-30T19:08:34.150Z,20.56
2023-06-30T19:12:41.756Z,20.47
2023-06-30T19:16:49.059Z,20.41
2023-06-30T19:20:56.674Z,20.37
2023-06-30T19:25:04.960Z,20.32
2023-06-30T19:29:12.534Z,20.30
2023-06-30T19:33:25.192Z,20.30
2023-06-30T19:37:36.029Z,20.28
2023-06-30T19:41:43.994Z,20.25
2023-06-30T19:45:52.532Z,20.21
2023-06-30T19:50:00.453Z,20.14
2023-06-30T19:54:08.233Z,20.08
2023-06-30T19:58:15.737Z,20.05
2023-06-30T20:02:23.705Z,20.06
2023-06-30T20:06:31.834Z,20.05
2023-06-30T20:10:39.758Z,20.01
2023-06-30T20:14:47.937Z,20.00
2023-06-30T20:18:57.454Z,20.01
2023-06-30T20:23:05.691Z,20.01
2023-06-30T20:27:13.823Z,20.01
2023-06-30T20:31:21.545Z,19.97
2023-06-30T20:35:29.029Z,19.90
2023-06-30T20:39:37.511Z,19.88
2023-06-30T20:43:45.250Z,19.85
2023-06-30T20:47:53.831Z,19.84
2023-06-30T20:52:02.127Z,19.84
2023-06-30T20:56:09.788Z,19.81
2023-06-30T21:00:18.734Z,19.77
2023-06-30T21:04:26.781Z,19.78
2023-06-30T21:08:35.256Z,19.79
2023-06-30T21:12:43.008Z,19.78
2023-06-30T21:16:50.930Z,19.74
2023-06-30T21:20:58.558Z,19.70
2023-06-30T21:25:07.149Z,19.67
2023-06-30T21:29:15.205Z,19.66
2023-06-30T21:33:22.934Z,19.66
2023-06-30T21:37:32.355Z,19.63
2023-06-30T21:41:40.630Z,19.60
2023-06-30T21:45:48.085Z,19.55
2023-06-30T21:49:56.913Z,19.50
2023-06-30T21:54:08.462Z,19.47
2023-06-30T21:58:26.964Z,19.46
2023-06-30T22:02:36.151Z,19.43
2023-06-30T22:06:45.018Z,19.39
2023-06-30T22:10:52.991Z,19.38
2023-06-30T22:15:01.560Z,19.36
2023-06-30T22:19:09.363Z,19.37
2023-06-30T22:23:17.255Z,19.36
2023-06-30T22:27:24.946Z,19.32
2023-06-30T22:31:32.762Z,19.27
2023-06-30T22:35:43.004Z,19.24
2023-06-30T22:39:50.881Z,19.21
2023-06-30T22:43:59.218Z,19.20
2023-06-30T22:48:07.893Z,19.19
2023-06-30T22:52:15.868Z,19.15
2023-06-30T22:56:24.255Z,19.09
2023-06-30T23:00:32.089Z,19.03
2023-06-30T23:04:41.307Z,18.98
2023-06-30T23:08:49.598Z,18.94
2023-06-30T23:13:04.364Z,18.79
2023-06-30T23:17:16.331Z,18.64
2023-06-30T23:21:29.119Z,18.55
2023-06-30T23:25:38.841Z,18.45
2023-06-30T23:29:50.638Z,18.37
2023-06-30T23:34:03.779Z,18.35
2023-06-30T23:38:12.883Z,18.30
2023-06-30T23:42:20.865Z,18.27
2023-06-30T23:46:30.198Z,18.25
2023-06-30T23:50:37.607Z,18.22
2023-06-30T23:54:46.202Z,18.21
2023-06-30T23:58:55.949Z,18.17
